Time;durP1;ratioP1;P1;durP2;ratioP2;P2;SDS_P1;SDS_P2;PMS_P1;PMS_P2;Temp;Humidity;BMP_temperature;BMP_pressure;BME280_temperature;BME280_humidity;BME280_pressure;Samples;Min_cycle;Max_cycle;Signal;HPM_P1;HPM_P2
2022/05/12 00:02:11;;;;;;;7.27;4.33;;;17.80;99.90;;;;;;6267762;22;20150;-96
2022/05/12 00:04:37;;;;;;;8.60;3.93;;;17.90;99.90;;;;;;6266198;22;20235;-96
2022/05/12 00:07:04;;;;;;;10.07;4.87;;;18.00;99.90;;;;;;6265759;22;20206;-95
2022/05/12 00:09:31;;;;;;;6.63;4.40;;;18.10;99.90;;;;;;6241737;22;20167;-96
2022/05/12 00:11:57;;;;;;;12.50;4.17;;;18.00;99.90;;;;;;6266144;22;20157;-96
2022/05/12 00:14:23;;;;;;;9.53;5.20;;;18.10;99.90;;;;;;6266621;22;20146;-95
2022/05/12 00:16:48;;;;;;;9.33;4.67;;;17.80;99.90;;;;;;6268042;22;20159;-96
2022/05/12 00:19:16;;;;;;;10.80;5.33;;;17.80;99.90;;;;;;6267698;22;20175;-94
2022/05/12 00:21:43;;;;;;;9.30;5.23;;;17.80;99.90;;;;;;6266067;22;20169;-94
2022/05/12 00:24:09;;;;;;;13.23;6.60;;;17.80;99.90;;;;;;6263143;22;20261;-94
2022/05/12 00:26:36;;;;;;;10.90;6.30;;;17.80;99.90;;;;;;6262613;22;20602;-96
2022/05/12 00:29:07;;;;;;;11.70;5.50;;;17.70;99.90;;;;;;6265048;22;20142;-95
2022/05/12 00:31:36;;;;;;;8.53;6.13;;;17.70;99.90;;;;;;6265117;22;20150;-95
2022/05/12 00:34:04;;;;;;;13.20;5.77;;;17.60;99.90;;;;;;6263551;22;20154;-96
2022/05/12 00:36:29;;;;;;;10.63;5.70;;;17.70;99.90;;;;;;6264764;22;20155;-95
2022/05/12 00:38:55;;;;;;;14.90;5.57;;;17.50;99.90;;;;;;6265083;22;20153;-96
2022/05/12 00:41:21;;;;;;;11.47;6.00;;;17.40;99.90;;;;;;6262623;22;20168;-96
2022/05/12 00:44:02;;;;;;;11.37;6.13;;;17.50;99.90;;;;;;6263523;22;20575;-96
2022/05/12 00:46:31;;;;;;;12.03;6.07;;;17.50;99.90;;;;;;6264032;22;20145;-96
2022/05/12 00:49:13;;;;;;;11.63;6.37;;;17.40;99.90;;;;;;6264129;22;20212;-96
2022/05/12 00:51:47;;;;;;;10.93;6.20;;;17.60;99.90;;;;;;6263966;22;20150;-96
2022/05/12 00:54:19;;;;;;;8.10;5.77;;;17.70;99.90;;;;;;6263243;22;20598;-96
2022/05/12 00:56:47;;;;;;;12.60;6.50;;;17.10;99.90;;;;;;6260947;22;20187;-95
2022/05/12 00:59:19;;;;;;;10.37;7.07;;;16.90;99.90;;;;;;6262342;22;20583;-95
2022/05/12 01:01:48;;;;;;;10.30;6.80;;;17.00;99.90;;;;;;6267818;22;20177;-93
2022/05/12 01:04:14;;;;;;;12.13;7.13;;;17.10;99.90;;;;;;6267046;22;20196;-94
2022/05/12 01:06:41;;;;;;;11.60;7.33;;;17.10;99.90;;;;;;6268001;22;20188;-95
2022/05/12 01:09:07;;;;;;;15.00;7.77;;;17.00;99.90;;;;;;6267019;22;20157;-96
2022/05/12 01:11:34;;;;;;;14.10;8.00;;;16.90;99.90;;;;;;6237356;22;20229;-96
2022/05/12 01:14:03;;;;;;;20.17;9.27;;;16.90;99.90;;;;;;6262741;22;20146;-95
2022/05/12 01:16:38;;;;;;;13.30;9.00;;;16.90;99.90;;;;;;6263076;22;20237;-94
2022/05/12 01:19:06;;;;;;;14.97;9.77;;;17.00;99.90;;;;;;6264265;22;20166;-95
2022/05/12 01:21:32;;;;;;;17.03;9.77;;;17.00;99.90;;;;;;6265513;22;20173;-94
2022/05/12 01:23:58;;;;;;;14.00;8.43;;;17.10;99.90;;;;;;6263545;22;20261;-95
2022/05/12 01:26:31;;;;;;;15.37;8.07;;;17.20;99.90;;;;;;6264343;22;20150;-96
2022/05/12 01:28:57;;;;;;;15.73;8.07;;;17.30;99.90;;;;;;6240750;22;20237;-96
2022/05/12 01:31:25;;;;;;;13.50;9.10;;;17.40;99.90;;;;;;6265236;22;20160;-96
2022/05/12 01:33:51;;;;;;;15.03;9.13;;;17.30;99.90;;;;;;6264148;22;20226;-95
2022/05/12 01:36:19;;;;;;;18.33;9.53;;;17.30;99.90;;;;;;6239617;22;20174;-95
2022/05/12 01:38:45;;;;;;;17.10;10.23;;;17.10;99.90;;;;;;6264252;22;20190;-95
2022/05/12 01:41:10;;;;;;;15.37;8.40;;;17.10;99.90;;;;;;6264955;22;20221;-95
2022/05/12 01:43:36;;;;;;;17.27;8.90;;;17.00;99.90;;;;;;6264566;22;20179;-95
2022/05/12 01:46:02;;;;;;;17.30;8.80;;;17.00;99.90;;;;;;6264636;22;20154;-95
2022/05/12 01:48:28;;;;;;;14.83;8.13;;;17.10;99.90;;;;;;6265005;22;20197;-96
2022/05/12 01:50:57;;;;;;;13.87;8.20;;;17.00;99.90;;;;;;6264531;22;20153;-94
2022/05/12 01:53:23;;;;;;;13.63;8.20;;;17.20;99.90;;;;;;6264133;22;20146;-95
2022/05/12 01:55:50;;;;;;;13.80;8.63;;;17.30;99.90;;;;;;6264458;22;20209;-95
2022/05/12 01:58:20;;;;;;;14.37;9.60;;;17.50;99.90;;;;;;6263258;22;20177;-95
2022/05/12 02:00:47;;;;;;;14.40;8.37;;;17.50;99.90;;;;;;6264349;22;20156;-94
2022/05/12 02:03:14;;;;;;;15.93;8.07;;;17.40;99.90;;;;;;6263641;22;20150;-96
2022/05/12 02:05:41;;;;;;;14.97;7.70;;;17.50;99.90;;;;;;6265058;22;20170;-95
2022/05/12 02:08:09;;;;;;;16.30;7.27;;;17.60;99.90;;;;;;6263784;22;20146;-95
2022/05/12 02:10:39;;;;;;;12.53;7.20;;;17.80;99.90;;;;;;6260841;22;20156;-95
2022/05/12 02:13:07;;;;;;;17.33;7.33;;;17.80;99.90;;;;;;6253175;22;20142;-95
2022/05/12 02:15:34;;;;;;;14.60;7.87;;;17.60;99.90;;;;;;6252772;22;20220;-95
2022/05/12 02:18:02;;;;;;;14.60;8.43;;;17.40;99.90;;;;;;6254696;22;20163;-94
2022/05/12 02:20:28;;;;;;;14.37;8.60;;;17.10;99.90;;;;;;6254585;22;20193;-95
2022/05/12 02:22:54;;;;;;;16.27;9.03;;;17.10;99.90;;;;;;6253404;22;20492;-94
2022/05/12 02:25:20;;;;;;;14.00;8.37;;;17.10;99.90;;;;;;6254759;22;20186;-96
2022/05/12 02:27:46;;;;;;;17.03;7.63;;;17.10;99.90;;;;;;6255532;22;20149;-95
2022/05/12 02:30:35;;;;;;;14.57;6.30;;;17.00;99.90;;;;;;6255125;22;20230;-95
2022/05/12 02:33:02;;;;;;;12.53;5.90;;;16.80;99.90;;;;;;6280906;22;20152;-94
2022/05/12 02:35:29;;;;;;;14.23;5.43;;;16.60;99.90;;;;;;6254670;22;20152;-95
2022/05/12 02:37:55;;;;;;;15.33;5.90;;;16.40;99.90;;;;;;6255921;22;20150;-95
2022/05/12 02:40:22;;;;;;;14.10;5.70;;;16.40;99.90;;;;;;6256396;22;20223;-95
2022/05/12 02:42:48;;;;;;;14.17;5.53;;;16.40;99.90;;;;;;6258954;22;20170;-94
2022/05/12 02:45:15;;;;;;;14.80;6.00;;;16.50;99.90;;;;;;6264219;22;20178;-95
2022/05/12 02:47:42;;;;;;;14.63;6.10;;;16.50;99.90;;;;;;6273659;22;20145;-96
2022/05/12 02:50:11;;;;;;;18.37;6.00;;;16.40;99.90;;;;;;6274103;22;20146;-96
2022/05/12 02:52:37;;;;;;;18.43;5.43;;;16.40;99.90;;;;;;6273722;22;20142;-94
2022/05/12 02:55:03;;;;;;;15.93;5.27;;;16.30;99.90;;;;;;6262725;22;20227;-94
2022/05/12 02:57:29;;;;;;;10.90;5.17;;;16.40;99.90;;;;;;6258789;22;20144;-94
2022/05/12 02:59:54;;;;;;;15.37;5.50;;;16.40;99.90;;;;;;6254008;22;20178;-95
2022/05/12 03:02:21;;;;;;;13.37;5.53;;;16.50;99.90;;;;;;6252441;22;20150;-94
2022/05/12 03:04:48;;;;;;;13.13;5.30;;;16.50;99.90;;;;;;6251860;22;20200;-96
2022/05/12 03:07:14;;;;;;;13.70;5.20;;;16.30;99.90;;;;;;6251641;22;20150;-94
2022/05/12 03:09:41;;;;;;;16.00;5.87;;;16.30;99.90;;;;;;6254162;22;20162;-96
2022/05/12 03:12:07;;;;;;;11.43;5.67;;;16.20;99.90;;;;;;6254546;22;20483;-96
2022/05/12 03:14:33;;;;;;;13.17;5.37;;;16.30;99.90;;;;;;6254942;22;20182;-95
2022/05/12 03:16:58;;;;;;;12.20;4.53;;;16.30;99.90;;;;;;6251361;22;20403;-95
2022/05/12 03:19:25;;;;;;;13.83;4.93;;;16.30;99.90;;;;;;6251579;22;20164;-94
2022/05/12 03:21:52;;;;;;;14.13;5.43;;;16.30;99.90;;;;;;6251324;22;20193;-95
2022/05/12 03:24:19;;;;;;;12.77;5.97;;;16.40;99.90;;;;;;6250730;22;20180;-95
2022/05/12 03:26:46;;;;;;;12.20;5.23;;;16.60;99.90;;;;;;6251159;22;20142;-95
2022/05/12 03:29:12;;;;;;;12.37;4.57;;;16.70;99.90;;;;;;6250970;22;20147;-95
2022/05/12 03:31:38;;;;;;;11.33;4.50;;;16.80;99.90;;;;;;6252189;22;20145;-94
2022/05/12 03:34:06;;;;;;;12.57;6.07;;;16.70;99.90;;;;;;6251005;22;20660;-95
2022/05/12 03:36:35;;;;;;;12.17;5.80;;;16.30;99.90;;;;;;6251082;22;20231;-95
2022/05/12 03:39:03;;;;;;;16.10;5.73;;;15.90;99.90;;;;;;6250788;22;20165;-95
2022/05/12 03:41:29;;;;;;;11.10;4.97;;;15.80;99.90;;;;;;6250969;22;20141;-94
2022/05/12 03:46:41;;;;;;;16.27;5.00;;;15.80;99.90;;;;;;6281076;22;20202;-94
2022/05/12 03:49:07;;;;;;;14.43;5.40;;;15.60;99.90;;;;;;6253544;22;20231;-96
2022/05/12 03:51:33;;;;;;;13.87;5.07;;;15.60;99.90;;;;;;6253289;22;20207;-94
2022/05/12 03:54:01;;;;;;;13.23;4.90;;;15.60;99.90;;;;;;6255473;22;20226;-95
2022/05/12 03:56:27;;;;;;;14.33;5.23;;;15.60;99.90;;;;;;6257853;22;20154;-96
2022/05/12 03:58:53;;;;;;;15.80;5.07;;;15.70;99.90;;;;;;6253876;22;20173;-96
2022/05/12 04:01:18;;;;;;;13.17;4.60;;;15.80;99.90;;;;;;6252447;22;20172;-95
2022/05/12 04:03:45;;;;;;;13.73;5.17;;;15.80;99.90;;;;;;6251037;22;20211;-94
2022/05/12 04:06:11;;;;;;;13.27;5.47;;;15.80;99.90;;;;;;6252216;22;20205;-94
2022/05/12 04:08:37;;;;;;;14.13;4.90;;;15.60;99.90;;;;;;6253584;22;20146;-92
2022/05/12 04:11:03;;;;;;;14.63;5.50;;;15.60;99.90;;;;;;6234932;22;20181;-95
2022/05/12 04:13:30;;;;;;;9.23;4.70;;;15.60;99.90;;;;;;6261399;22;20172;-95
2022/05/12 04:15:56;;;;;;;16.37;6.07;;;15.60;99.90;;;;;;6264866;22;20141;-96
2022/05/12 04:18:21;;;;;;;14.23;5.30;;;15.70;99.90;;;;;;6265251;22;20229;-94
2022/05/12 04:20:47;;;;;;;12.17;5.30;;;15.60;99.90;;;;;;6265832;22;20180;-95
2022/05/12 04:23:15;;;;;;;11.30;4.67;;;15.50;99.90;;;;;;6266347;22;20156;-96
2022/05/12 04:25:42;;;;;;;14.53;5.20;;;15.60;99.90;;;;;;6267436;22;20157;-95
2022/05/12 04:28:11;;;;;;;17.50;6.13;;;15.70;99.90;;;;;;6268508;22;20142;-94
2022/05/12 04:30:38;;;;;;;13.87;5.30;;;15.60;99.90;;;;;;6267017;22;20170;-95
2022/05/12 04:35:49;;;;;;;17.57;6.17;;;15.70;99.90;;;;;;6290277;22;20163;-95
2022/05/12 04:38:17;;;;;;;16.03;5.77;;;15.50;99.90;;;;;;6262851;22;20226;-94
2022/05/12 04:40:45;;;;;;;16.17;7.00;;;15.50;99.90;;;;;;6265482;22;20148;-95
2022/05/12 04:43:13;;;;;;;17.73;7.43;;;15.50;99.90;;;;;;6266003;22;20213;-94
2022/05/12 04:45:40;;;;;;;19.37;7.47;;;15.60;99.90;;;;;;6265337;22;20202;-93
2022/05/12 04:48:08;;;;;;;17.67;6.40;;;15.80;99.90;;;;;;6265265;22;20195;-95
2022/05/12 04:50:37;;;;;;;16.13;6.43;;;15.90;99.90;;;;;;6262766;22;20149;-95
2022/05/12 04:53:03;;;;;;;11.33;6.00;;;15.90;99.90;;;;;;6265012;22;20192;-95
2022/05/12 04:55:30;;;;;;;14.57;6.00;;;16.00;99.90;;;;;;6265646;22;20144;-96
2022/05/12 04:57:57;;;;;;;15.87;6.33;;;16.00;99.90;;;;;;6264906;22;20256;-95
2022/05/12 05:00:32;;;;;;;15.83;7.73;;;16.10;99.90;;;;;;6265760;22;20140;-95
2022/05/12 05:02:59;;;;;;;16.33;7.20;;;16.00;99.90;;;;;;6265872;22;20230;-95
2022/05/12 05:05:29;;;;;;;13.13;6.87;;;16.00;99.90;;;;;;6265773;22;20206;-94
2022/05/12 05:07:55;;;;;;;16.90;6.97;;;16.10;99.90;;;;;;6258859;22;20141;-95
2022/05/12 05:10:21;;;;;;;16.13;7.17;;;16.10;99.90;;;;;;6258587;22;20175;-93
2022/05/12 05:12:48;;;;;;;16.37;7.47;;;16.00;99.90;;;;;;6256581;22;20146;-96
2022/05/12 05:15:14;;;;;;;18.30;9.30;;;16.00;99.90;;;;;;6262763;22;20143;-95
2022/05/12 05:17:41;;;;;;;19.17;9.20;;;16.20;99.90;;;;;;6262252;22;20167;-96
2022/05/12 05:20:11;;;;;;;15.50;9.20;;;16.20;99.90;;;;;;6257962;22;20201;-94
2022/05/12 05:22:38;;;;;;;19.10;10.10;;;16.30;99.90;;;;;;6253954;22;20145;-96
2022/05/12 05:25:07;;;;;;;19.40;9.70;;;16.30;99.90;;;;;;6252515;22;20176;-94
2022/05/12 05:27:32;;;;;;;12.20;8.83;;;16.50;99.90;;;;;;6254721;22;20146;-96
2022/05/12 05:29:58;;;;;;;15.50;9.97;;;16.50;99.90;;;;;;6256682;22;20195;-95
2022/05/12 05:32:24;;;;;;;16.87;9.00;;;16.40;99.90;;;;;;6255361;22;20575;-95
2022/05/12 05:34:50;;;;;;;17.30;10.47;;;16.10;99.90;;;;;;6256954;22;20471;-94
2022/05/12 05:37:16;;;;;;;20.10;9.70;;;15.90;99.90;;;;;;6258602;22;20169;-93
2022/05/12 05:39:42;;;;;;;17.23;9.03;;;15.70;99.90;;;;;;6255040;22;20187;-96
2022/05/12 05:42:14;;;;;;;17.70;9.47;;;15.60;99.90;;;;;;6253320;22;20582;-95
2022/05/12 05:44:41;;;;;;;18.87;9.50;;;15.60;99.90;;;;;;6253247;22;20247;-94
2022/05/12 05:47:07;;;;;;;19.73;9.10;;;15.50;99.90;;;;;;6253474;22;20140;-94
2022/05/12 05:49:35;;;;;;;19.10;9.17;;;15.60;99.90;;;;;;6253664;22;20145;-93
2022/05/12 05:54:45;;;;;;;13.87;8.20;;;15.50;99.90;;;;;;6279449;22;20199;-96
2022/05/12 05:57:12;;;;;;;22.70;8.70;;;15.30;99.90;;;;;;6251622;22;20229;-96
2022/05/12 05:59:39;;;;;;;30.50;9.30;;;15.40;99.90;;;;;;6252683;22;20172;-95
2022/05/12 06:02:05;;;;;;;21.80;8.83;;;15.60;99.90;;;;;;6249473;22;20145;-92
2022/05/12 06:04:30;;;;;;;17.67;7.93;;;15.70;99.90;;;;;;6249742;22;20203;-94
2022/05/12 06:06:57;;;;;;;17.43;8.00;;;15.90;99.90;;;;;;6234034;22;20159;-93
2022/05/12 06:09:27;;;;;;;20.43;8.10;;;16.00;99.90;;;;;;6245939;22;20595;-93
2022/05/12 06:11:54;;;;;;;13.70;7.70;;;16.00;99.90;;;;;;6247989;22;20146;-94
2022/05/12 06:14:19;;;;;;;14.83;7.87;;;16.10;99.90;;;;;;6247975;22;20219;-94
2022/05/12 06:16:45;;;;;;;20.97;7.20;;;16.30;99.90;;;;;;6247288;22;20229;-94
2022/05/12 06:19:11;;;;;;;17.00;7.80;;;16.20;99.90;;;;;;6247751;22;20171;-93
2022/05/12 06:21:37;;;;;;;16.57;7.13;;;16.20;99.90;;;;;;6248767;22;20178;-95
2022/05/12 06:24:18;;;;;;;17.13;6.97;;;16.00;99.90;;;;;;6249700;22;20492;-95
2022/05/12 13:31:39;;;;;;;7.57;1.30;;;27.80;59.80;;;;;;6294429;22;20209;-90
2022/05/12 13:34:12;;;;;;;3.73;1.50;;;28.20;60.20;;;;;;6250353;22;20150;-89
2022/05/12 13:36:41;;;;;;;6.93;1.97;;;28.10;59.10;;;;;;6250570;22;20143;-90
2022/05/12 13:39:07;;;;;;;7.60;1.30;;;27.60;59.60;;;;;;6250739;22;20190;-90
2022/05/12 13:41:38;;;;;;;7.27;1.60;;;27.90;59.40;;;;;;6250142;22;20134;-90
2022/05/12 13:44:16;;;;;;;8.10;1.67;;;28.20;59.40;;;;;;6250742;22;20241;-91
2022/05/12 13:46:52;;;;;;;7.93;1.60;;;28.60;58.70;;;;;;6250195;22;20154;-91
2022/05/12 13:49:29;;;;;;;4.90;1.80;;;28.90;58.70;;;;;;6250569;22;20154;-90
2022/05/12 13:51:57;;;;;;;7.13;1.70;;;28.10;59.30;;;;;;6250764;22;20154;-89
2022/05/12 13:54:28;;;;;;;5.93;1.83;;;27.70;59.70;;;;;;6250615;22;20143;-89
2022/05/12 13:57:15;;;;;;;6.40;1.70;;;27.40;59.80;;;;;;6250371;22;20143;-90
2022/05/12 13:59:52;;;;;;;8.63;1.57;;;27.40;60.00;;;;;;6250879;22;20142;-90
2022/05/12 14:02:50;;;;;;;5.07;1.60;;;27.20;59.90;;;;;;6250265;22;20158;-89
2022/05/12 14:05:22;;;;;;;6.20;1.87;;;26.70;60.70;;;;;;6227266;22;20189;-90
2022/05/12 14:08:14;;;;;;;6.67;1.80;;;26.30;61.50;;;;;;6250277;22;20145;-89
2022/05/12 14:11:01;;;;;;;4.97;1.80;;;26.30;61.50;;;;;;6250333;22;20240;-90
2022/05/12 14:19:15;;;;;;;6.67;1.70;;;24.80;64.40;;;;;;6277364;22;20201;-89
2022/05/12 14:21:56;;;;;;;4.53;1.80;;;24.40;65.30;;;;;;6245730;23;20225;-90
2022/05/12 14:24:23;;;;;;;8.17;2.00;;;24.50;65.40;;;;;;6219706;23;20323;-91
2022/05/12 14:26:50;;;;;;;7.57;2.00;;;24.70;64.80;;;;;;6219961;23;20162;-91
2022/05/12 14:29:16;;;;;;;6.53;1.80;;;24.60;65.00;;;;;;6219663;23;20643;-91
2022/05/12 14:31:44;;;;;;;4.50;1.77;;;24.40;64.30;;;;;;6224734;23;20198;-90
2022/05/12 14:34:12;;;;;;;4.30;1.60;;;24.30;64.50;;;;;;6245095;23;20147;-89
2022/05/12 14:36:37;;;;;;;4.50;1.27;;;24.10;65.40;;;;;;6245121;23;20185;-90
2022/05/12 14:39:04;;;;;;;5.17;1.67;;;24.20;65.90;;;;;;6244976;23;20139;-90
2022/05/12 14:41:30;;;;;;;5.73;1.20;;;24.60;65.50;;;;;;6245531;23;20155;-90
2022/05/12 14:43:56;;;;;;;8.43;1.50;;;25.30;64.50;;;;;;6244836;23;20599;-89
2022/05/12 14:46:22;;;;;;;6.77;1.53;;;25.50;63.90;;;;;;6244856;23;20151;-90
2022/05/12 14:48:52;;;;;;;6.63;1.57;;;25.50;64.70;;;;;;6245241;23;20143;-90
2022/05/12 14:51:20;;;;;;;3.83;1.27;;;25.50;64.20;;;;;;6244668;23;20205;-89
2022/05/12 14:53:45;;;;;;;6.20;1.47;;;25.50;62.40;;;;;;6245074;23;20143;-90
2022/05/12 14:56:11;;;;;;;4.73;1.13;;;25.60;62.50;;;;;;6244926;23;20185;-90
2022/05/12 14:58:37;;;;;;;5.70;1.50;;;25.50;62.40;;;;;;6245105;23;20135;-90
2022/05/12 15:01:06;;;;;;;5.17;1.50;;;25.40;62.30;;;;;;6244862;23;20160;-90
2022/05/12 15:03:35;;;;;;;7.70;1.77;;;25.00;62.90;;;;;;6244575;23;20158;-90
2022/05/12 15:06:02;;;;;;;7.40;1.67;;;24.60;63.40;;;;;;6244452;23;20183;-90
2022/05/12 15:08:28;;;;;;;5.13;1.20;;;24.60;63.40;;;;;;6245590;23;20148;-93
2022/05/12 15:10:54;;;;;;;6.13;1.77;;;24.80;62.60;;;;;;6246992;23;20562;-91
2022/05/12 15:13:20;;;;;;;5.27;1.50;;;25.00;62.80;;;;;;6245543;23;20182;-90
2022/05/12 15:15:47;;;;;;;5.33;1.40;;;25.30;62.50;;;;;;6245485;23;20147;-90
2022/05/12 15:18:16;;;;;;;3.63;1.20;;;25.20;61.90;;;;;;6246627;23;20525;-93
2022/05/12 15:20:41;;;;;;;6.30;1.70;;;25.60;60.80;;;;;;6245776;23;20167;-90
2022/05/12 15:23:07;;;;;;;3.80;1.23;;;25.90;60.60;;;;;;6245626;23;20231;-90
2022/05/12 15:25:33;;;;;;;3.10;1.17;;;26.10;59.90;;;;;;6244985;23;20185;-89
2022/05/12 15:27:59;;;;;;;4.13;1.10;;;26.20;59.50;;;;;;6245317;23;20147;-90
2022/05/12 15:30:26;;;;;;;4.90;1.13;;;25.70;59.60;;;;;;6246661;23;20234;-90
2022/05/12 15:32:54;;;;;;;5.80;1.10;;;25.60;59.80;;;;;;6246514;23;20180;-90
2022/05/12 15:35:20;;;;;;;4.13;1.40;;;25.60;60.40;;;;;;6245907;23;20489;-89
2022/05/12 15:37:46;;;;;;;3.40;1.43;;;25.80;60.40;;;;;;6237942;23;20231;-90
2022/05/12 15:40:15;;;;;;;5.67;1.50;;;26.00;59.90;;;;;;6240496;23;20152;-89
2022/05/12 15:42:43;;;;;;;6.00;1.17;;;26.10;59.40;;;;;;6241591;23;20151;-89
2022/05/12 15:45:10;;;;;;;6.13;1.70;;;26.20;59.50;;;;;;6241187;23;20183;-89
2022/05/12 15:47:42;;;;;;;5.63;1.63;;;26.40;58.80;;;;;;6241426;23;20555;-89
2022/05/12 15:50:13;;;;;;;6.03;1.10;;;26.70;59.10;;;;;;6241173;23;20143;-89
2022/05/12 15:52:40;;;;;;;5.23;1.13;;;27.10;58.40;;;;;;6241378;23;20561;-90
2022/05/12 15:55:06;;;;;;;4.60;1.27;;;27.40;58.40;;;;;;6243901;23;20225;-90
2022/05/12 15:57:32;;;;;;;4.27;1.23;;;27.70;58.10;;;;;;6244792;23;20591;-90
2022/05/12 15:59:58;;;;;;;4.83;1.37;;;28.10;56.40;;;;;;6246368;23;20140;-89
2022/05/12 16:02:25;;;;;;;5.00;1.17;;;28.40;55.90;;;;;;6246437;23;20159;-89
2022/05/12 16:04:52;;;;;;;5.23;1.10;;;28.60;55.90;;;;;;6246725;23;20214;-89
2022/05/12 16:07:20;;;;;;;6.37;1.37;;;28.20;55.70;;;;;;6246902;23;20194;-90
2022/05/12 16:09:46;;;;;;;3.57;1.13;;;28.20;56.40;;;;;;6246242;23;20226;-90
2022/05/12 16:35:38;;;;;;;3.90;1.17;;;27.60;56.00;;;;;;6282807;22;20528;-91
2022/05/12 16:38:03;;;;;;;5.87;1.60;;;27.60;55.90;;;;;;6303098;22;20143;-91
2022/05/12 16:40:31;;;;;;;7.53;1.00;;;27.70;55.70;;;;;;6302807;22;20239;-91
2022/05/12 16:42:59;;;;;;;2.97;0.97;;;27.80;55.70;;;;;;6302911;22;20143;-92
2022/05/12 16:45:26;;;;;;;5.80;1.20;;;28.10;55.80;;;;;;6302371;22;20623;-91
2022/05/12 16:47:51;;;;;;;4.87;1.00;;;28.30;55.50;;;;;;6302095;22;20166;-91
2022/05/12 16:50:17;;;;;;;3.00;1.30;;;27.90;55.70;;;;;;6303131;22;20184;-90
2022/05/12 16:52:43;;;;;;;5.73;1.33;;;27.60;56.50;;;;;;6302710;22;20141;-91
2022/05/12 16:55:13;;;;;;;3.90;1.20;;;26.90;56.40;;;;;;6302774;22;20540;-92
2022/05/12 16:57:43;;;;;;;4.67;1.27;;;27.00;56.40;;;;;;6302341;22;20143;-91
2022/05/12 17:00:09;;;;;;;3.97;1.10;;;27.30;56.50;;;;;;6302606;22;20170;-91
2022/05/12 17:02:37;;;;;;;3.23;1.10;;;27.80;56.20;;;;;;6302128;22;20709;-91
2022/05/12 17:05:05;;;;;;;3.13;1.17;;;28.00;56.00;;;;;;6302566;22;20201;-91
2022/05/12 17:07:31;;;;;;;3.60;1.57;;;27.30;56.20;;;;;;6302537;22;20169;-91
2022/05/12 17:09:59;;;;;;;3.83;1.50;;;26.60;57.20;;;;;;6302650;22;20635;-91
2022/05/12 17:12:29;;;;;;;3.80;1.17;;;26.90;57.50;;;;;;6302334;22;20469;-91
2022/05/12 17:15:00;;;;;;;3.80;1.57;;;27.10;57.10;;;;;;6302999;22;20173;-91
2022/05/12 17:17:35;;;;;;;7.43;1.03;;;27.10;57.10;;;;;;6302275;22;20150;-92
2022/05/12 17:20:11;;;;;;;7.57;1.30;;;27.20;56.80;;;;;;6303302;22;20168;-92
2022/05/12 17:22:39;;;;;;;5.63;1.63;;;27.10;57.10;;;;;;6277084;22;20157;-93
2022/05/12 17:25:09;;;;;;;4.80;1.37;;;26.40;57.80;;;;;;6276901;22;20184;-91
2022/05/12 17:27:34;;;;;;;5.67;1.20;;;26.10;58.70;;;;;;6276973;22;20575;-91
2022/05/12 17:30:06;;;;;;;8.23;1.13;;;25.50;59.80;;;;;;6277017;22;20157;-92
2022/05/12 17:32:32;;;;;;;4.87;1.20;;;25.60;60.00;;;;;;6276448;22;20519;-91
2022/05/12 17:34:58;;;;;;;6.33;1.20;;;25.60;59.90;;;;;;6276541;22;20662;-91
2022/05/12 17:37:25;;;;;;;4.37;0.83;;;25.20;60.60;;;;;;6276815;22;20162;-91
2022/05/12 17:39:55;;;;;;;6.27;1.50;;;25.20;60.60;;;;;;6276709;22;20144;-90
2022/05/12 17:42:32;;;;;;;5.17;1.33;;;25.40;60.70;;;;;;6276882;22;20145;-91
2022/05/12 17:44:58;;;;;;;4.97;1.10;;;25.50;60.00;;;;;;6276152;22;20174;-91
2022/05/12 17:47:24;;;;;;;7.20;1.77;;;25.30;60.50;;;;;;6276471;22;20153;-91
2022/05/12 17:49:49;;;;;;;7.80;1.70;;;24.80;60.90;;;;;;6276361;22;20459;-92
2022/05/12 17:52:18;;;;;;;4.57;1.20;;;24.30;61.60;;;;;;6276236;22;20143;-91
2022/05/12 17:54:43;;;;;;;6.23;1.47;;;24.30;61.90;;;;;;6277093;22;20150;-91
2022/05/12 17:57:09;;;;;;;9.67;1.30;;;24.20;61.90;;;;;;6276647;22;20147;-92
2022/05/12 17:59:35;;;;;;;3.80;1.30;;;24.00;62.20;;;;;;6276546;22;20237;-91
2022/05/12 18:02:03;;;;;;;5.43;1.53;;;24.10;62.50;;;;;;6277879;22;20180;-91
2022/05/12 18:04:28;;;;;;;5.37;1.13;;;24.10;62.10;;;;;;6279182;22;20391;-90
2022/05/12 18:06:55;;;;;;;4.43;1.13;;;23.70;62.60;;;;;;6279009;22;20182;-91
2022/05/12 18:09:21;;;;;;;7.93;1.40;;;23.40;63.10;;;;;;6279958;22;20225;-91
2022/05/12 18:11:47;;;;;;;4.10;1.07;;;23.20;63.50;;;;;;6279867;22;20142;-91
2022/05/12 18:14:16;;;;;;;5.90;1.10;;;23.20;63.50;;;;;;6280733;22;20161;-90
2022/05/12 18:16:42;;;;;;;7.13;1.20;;;23.30;63.40;;;;;;6284689;22;20195;-91
2022/05/12 18:19:11;;;;;;;3.80;1.00;;;23.30;63.20;;;;;;6276083;22;20146;-90
2022/05/12 18:21:37;;;;;;;2.50;1.00;;;22.90;63.30;;;;;;6280328;22;20146;-91
2022/05/12 18:24:03;;;;;;;6.83;1.57;;;22.90;63.60;;;;;;6275981;22;20146;-91
2022/05/12 18:26:28;;;;;;;8.10;1.20;;;22.80;63.50;;;;;;6275638;22;20487;-91
2022/05/12 18:28:54;;;;;;;4.90;1.00;;;23.00;62.90;;;;;;6275937;22;20150;-90
2022/05/12 18:31:21;;;;;;;4.73;1.33;;;22.80;62.30;;;;;;6276339;22;20145;-91
2022/05/12 18:33:47;;;;;;;3.70;1.43;;;22.40;62.10;;;;;;6276106;22;20145;-91
2022/05/12 18:36:13;;;;;;;4.37;1.07;;;22.20;61.90;;;;;;6275695;22;20165;-90
2022/05/12 18:38:40;;;;;;;3.57;1.00;;;22.20;61.50;;;;;;6275637;22;20478;-90
2022/05/12 18:41:07;;;;;;;4.87;1.10;;;21.90;61.90;;;;;;6275667;22;20146;-90
2022/05/12 18:43:33;;;;;;;5.23;0.97;;;21.40;62.90;;;;;;6274682;22;20157;-90
2022/05/12 18:46:00;;;;;;;3.60;1.37;;;21.30;63.80;;;;;;6275583;22;20244;-89
2022/05/12 18:48:27;;;;;;;5.03;1.03;;;21.40;63.40;;;;;;6275520;22;20149;-90
2022/05/12 18:50:52;;;;;;;3.73;0.67;;;21.30;63.70;;;;;;6276008;22;20152;-90
2022/05/12 18:53:18;;;;;;;3.67;1.10;;;21.50;63.70;;;;;;6274768;22;20223;-91
2022/05/12 18:55:44;;;;;;;6.43;1.40;;;21.50;63.40;;;;;;6256016;22;20232;-90
2022/05/12 18:58:11;;;;;;;2.37;1.13;;;21.50;63.50;;;;;;6271404;22;20197;-90
2022/05/12 19:00:43;;;;;;;4.93;1.47;;;21.20;64.00;;;;;;6271887;22;20160;-89
2022/05/12 19:03:10;;;;;;;5.07;1.50;;;21.20;64.50;;;;;;6273008;22;20150;-88
2022/05/12 19:05:36;;;;;;;6.23;1.40;;;21.30;64.30;;;;;;6271893;22;20213;-89
2022/05/12 19:08:02;;;;;;;2.80;1.10;;;21.20;64.30;;;;;;6272153;22;20669;-90
2022/05/12 19:10:29;;;;;;;5.40;1.50;;;21.30;64.40;;;;;;6272522;22;20177;-91
2022/05/12 19:12:55;;;;;;;5.37;1.47;;;21.40;64.50;;;;;;6272338;22;20157;-89
2022/05/12 19:15:24;;;;;;;3.57;1.37;;;21.50;64.80;;;;;;6271883;22;20237;-89
2022/05/12 19:17:55;;;;;;;3.77;1.00;;;21.40;65.20;;;;;;6271706;22;20145;-89
2022/05/12 19:20:25;;;;;;;5.10;1.10;;;21.40;65.20;;;;;;6272281;22;20196;-89
2022/05/12 19:22:50;;;;;;;3.60;1.00;;;21.40;65.50;;;;;;6272352;22;20183;-88
2022/05/12 19:25:16;;;;;;;4.63;1.00;;;21.20;65.10;;;;;;6271220;22;20189;-89
2022/05/12 19:27:43;;;;;;;5.27;1.23;;;21.10;65.90;;;;;;6273049;22;20146;-89
2022/05/12 19:30:13;;;;;;;5.23;1.53;;;21.10;65.70;;;;;;6274364;22;20267;-90
2022/05/12 19:32:39;;;;;;;3.97;1.10;;;21.10;65.90;;;;;;6274512;22;20152;-90
2022/05/12 19:35:05;;;;;;;7.33;1.17;;;21.00;65.30;;;;;;6277045;22;20174;-89
2022/05/12 19:37:32;;;;;;;3.43;1.13;;;21.00;65.40;;;;;;6277053;22;20149;-90
2022/05/12 19:39:59;;;;;;;4.27;1.30;;;21.10;65.30;;;;;;6275244;22;20152;-90
2022/05/12 19:42:26;;;;;;;1.53;0.70;;;21.10;65.40;;;;;;6273873;22;20150;-90
2022/05/12 19:44:52;;;;;;;3.03;1.20;;;21.10;65.10;;;;;;6263012;22;20560;-90
2022/05/12 19:47:18;;;;;;;5.03;0.97;;;21.20;64.80;;;;;;6273306;22;20160;-90
2022/05/12 19:49:47;;;;;;;6.13;1.43;;;21.30;64.90;;;;;;6274341;22;20146;-89
2022/05/12 19:52:17;;;;;;;7.07;1.40;;;21.20;64.70;;;;;;6274287;22;20177;-90
2022/05/12 19:54:43;;;;;;;3.53;1.10;;;21.00;65.10;;;;;;6275054;22;20272;-89
2022/05/12 19:57:10;;;;;;;6.47;1.77;;;20.80;65.60;;;;;;6273189;22;20603;-90
2022/05/12 19:59:37;;;;;;;6.10;2.07;;;20.70;66.20;;;;;;6273229;22;20146;-90
2022/05/12 20:02:04;;;;;;;7.17;1.37;;;20.60;66.40;;;;;;6277518;22;20150;-90
2022/05/12 20:04:29;;;;;;;3.47;1.37;;;20.60;66.70;;;;;;6276862;22;20189;-90
2022/05/12 20:06:56;;;;;;;5.17;1.60;;;20.70;66.50;;;;;;6276876;22;20235;-90
2022/05/12 20:09:22;;;;;;;6.77;1.40;;;20.70;66.40;;;;;;6277319;22;20145;-90
2022/05/12 20:11:51;;;;;;;7.80;1.37;;;20.50;66.80;;;;;;6277022;22;20600;-90
2022/05/12 20:14:19;;;;;;;4.90;1.37;;;20.50;66.70;;;;;;6277282;22;20149;-89
2022/05/12 20:16:46;;;;;;;7.47;1.57;;;20.20;67.30;;;;;;6276801;22;20582;-90
2022/05/12 20:19:12;;;;;;;9.53;1.20;;;19.90;67.90;;;;;;6276964;22;20163;-90
2022/05/12 20:21:39;;;;;;;3.97;1.27;;;19.70;68.50;;;;;;6277077;22;20226;-90
2022/05/12 20:24:05;;;;;;;5.77;1.17;;;19.60;68.90;;;;;;6277390;22;20143;-90
2022/05/12 20:26:34;;;;;;;4.23;1.30;;;19.50;69.50;;;;;;6276810;22;20143;-89
2022/05/12 20:29:00;;;;;;;4.60;1.17;;;19.30;69.70;;;;;;6274262;22;20473;-89